• Join FlightAware (Why Join?)
  • Login
  • US Flag 
02:18PM EDT


 

Airport Tracker/Info


-or-


 

Live Flight TrackerFlight Track Log ✈ AAY860 ✈ 06-May-2013 ✈ KPIE - KLEX

Flight Track Log - Related Links

Times and Time Zones

All times are in EDT time to prevent confusion due to time zone crossing. See the AAY860 flight status page for this flight to view local times or setup timezone preferences in your user account.

Time Position Orientation Groundspeed Altitude Reporting Facility
EDT Latitude Longitude Course Direction KTS MPH feet Rate Location/Type
07:24AM 27.9333 -82.6833 21° North 122 140 800  Level Tampa TRACON
07:26AM 28.0161 -82.6481 21° North 203 234 3,500 1,800 Climbing Jacksonville Center
07:27AM 28.0914 -82.6525 357° North 223 257 5,900 2,580 Climbing Jacksonville Center
07:28AM 28.1686 -82.6594 355° North 258 297 8,700 2,460 Climbing Jacksonville Center
07:29AM 28.2542 -82.6664 356° North 283 326 10,900 1,560 Climbing Jacksonville Center
07:30AM 28.3500 -82.6756 355° North 317 365 11,900 1,380 Climbing Jacksonville Center
07:31AM 28.4608 -82.6919 353° North 360 414 13,700 2,040 Climbing Jacksonville Center
07:32AM 28.5714 -82.7081 353° North 387 445 16,000 1,920 Climbing Jacksonville Center
07:33AM 28.6672 -82.7150 356° North 411 473 17,600 1,860 Climbing Jacksonville Center
07:34AM 28.8092 -82.7314 354° North 429 494 19,800 1,740 Climbing Jacksonville Center
07:35AM 28.9075 -82.7764 338° Northwest 424 488 21,100 1,380 Climbing Jacksonville Center
07:36AM 29.0161 -82.8356 335° Northwest 423 487 22,600 1,440 Climbing Jacksonville Center
07:37AM 29.1267 -82.8950 335° Northwest 428 493 24,000 1,560 Climbing Jacksonville Center
07:38AM 29.2394 -82.9544 335° Northwest 433 498 25,800 1,560 Climbing Jacksonville Center
07:39AM 29.3500 -83.0117 336° Northwest 438 504 27,200 1,680 Climbing Jacksonville Center
07:40AM 29.4647 -83.0619 339° North 438 504 29,200 1,320 Climbing Jacksonville Center
07:41AM 29.5775 -83.1122 339° North 438 504 29,900 300 Climbing Jacksonville Center
07:42AM 29.6900 -83.1581 341° North 429 494 29,900  Level Jacksonville Center
07:43AM 29.8047 -83.2061 340° North 434 499 29,900  Level Jacksonville Center
07:44AM 29.9214 -83.2569 339° North 439 505 29,900  Level Jacksonville Center
07:45AM 30.0342 -83.3053 340° North 439 505 29,900  Level Jacksonville Center
07:46AM 30.1531 -83.3539 341° North 439 505 29,900  Level Jacksonville Center
07:48AM 30.3822 -83.4536 339° North 439 505 30,000 300 Climbing Jacksonville Center
07:49AM 30.4967 -83.5050 339° North 439 505 30,800 840 Climbing Jacksonville Center
07:50AM 30.6156 -83.5539 341° North 439 505 31,700 600 Climbing Jacksonville Center
07:51AM 30.7281 -83.6056 338° Northwest 439 505 32,000 120 Climbing Jacksonville Center
07:52AM 30.8425 -83.6547 340° North 439 505 32,000  Level Jacksonville Center
07:53AM 30.9614 -83.7067 339° North 439 505 32,000  Level Jacksonville Center
07:54AM 31.0758 -83.7586 339° North 439 505 32,000  Level Jacksonville Center
07:55AM 31.1964 -83.8131 339° North 451 519 32,000  Level Jacksonville Center
07:56AM 31.4356 -83.9197 339° North 455 524 32,000  Level Atlanta Center
07:57AM 31.5567 -83.9658 342° North 450 518 32,000  Level Atlanta Center
07:58AM 31.6839 -83.9925 350° North 450 518 32,000  Level Atlanta Center
07:59AM 31.8008 -84.0217 348° North 456 525 32,000  Level Atlanta Center
08:01AM 31.9192 -84.0273 354° North  Level FlightAware Approximate
08:02AM 32.1933 -84.1025 355° North 471 542 32,000  Level Atlanta Center
08:04AM 32.4606 -84.1275 355° North 477 549 32,000  Level Atlanta Center
08:05AM 32.5939 -84.1400 355° North 482 555 32,000  Level Atlanta Center
08:06AM 32.7297 -84.1550 355° North 477 549 32,000  Level Atlanta Center
08:07AM 32.8611 -84.1675 355° North 482 555 32,000  Level Atlanta Center
08:08AM 32.7104 -84.1225 355° North  Level FlightAware Approximate
08:08AM 32.9928 -84.1775 356° North 482 555 32,000  Level Atlanta Center
08:09AM 33.1344 -84.1950 354° North 476 548 32,000  Level Atlanta Center
08:10AM 33.2681 -84.2103 355° North 476 548 32,000  Level Atlanta Center
08:11AM 33.3997 -84.2206 356° North 481 554 32,000  Level Atlanta Center
08:12AM 33.5331 -84.2331 356° North 481 554 32,000  Level Atlanta Center
08:13AM 33.6625 -84.2486 354° North 474 545 32,000  Level Atlanta Center
08:14AM 33.7942 -84.2614 355° North 469 540 32,000  Level Atlanta Center
08:15AM 33.9256 -84.2742 355° North 469 540 32,000  Level Atlanta Center
08:16AM 34.0592 -84.2894 355° North 469 540 32,000  Level Atlanta Center
08:17AM 34.1925 -84.2975 357° North 474 545 32,000  Level Atlanta Center
08:18AM 34.3242 -84.2753 North 475 547 32,000  Level Atlanta Center
08:20AM 34.4406 -84.2436 13° North  Level FlightAware Approximate
08:21AM 34.6978 -84.1878 11° North 470 541 32,000  Level Atlanta Center
08:22AM 34.8439 -84.1578 10° North 470 541 32,000  Level Atlanta Center
08:23AM 34.9775 -84.1631 358° North 476 548 32,000 -780 Level Atlanta Center
08:24AM 35.1111 -84.1758 356° North 482 555 30,500 -1,020 Descending Atlanta Center
08:25AM 35.2467 -84.1914 355° North 482 555 30,000 -300 Descending Atlanta Center
08:26AM 35.3822 -84.2044 356° North 482 555 30,000  Level Atlanta Center
08:27AM 35.2325 -84.0472 11° North  Level FlightAware Approximate
08:27AM 35.5158 -84.2172 356° North 482 555 30,000  Level Atlanta Center
08:28AM 35.6492 -84.2331 354° North 482 555 30,000  Level Atlanta Center
08:29AM 35.7850 -84.2461 356° North 482 555 30,000 -660 Level Atlanta Center
08:31AM 36.0056 -84.2661 356° North 490 564 28,300 -1,380 Descending Indianapolis Center
08:33AM 36.1719 -84.2912 353° North  Level FlightAware Approximate
08:33AM 36.2825 -84.2942 353° North 503 579 25,000  Level Indianapolis Center
08:34AM 36.4467 -84.3125 355° North 496 571 24,000 -540 Descending Indianapolis Center
08:35AM 36.5881 -84.3267 355° North 491 565 23,900 -540 Descending Indianapolis Center
08:36AM 36.7228 -84.3411 355° North 484 557 23,000 -960 Descending Indianapolis Center
08:38AM 36.9844 -84.3694 355° North 467 537 21,100 -1,440 Descending Indianapolis Center
08:39AM 37.1086 -84.3811 356° North 448 516 18,600 -2,040 Descending Indianapolis Center
08:40AM 37.2247 -84.3944 355° North 420 483 17,000 -2,400 Descending Indianapolis Center
08:41AM 37.3331 -84.4050 356° North 394 453 13,800 -3,240 Descending Indianapolis Center
08:42AM 37.4403 -84.4183 354° North 387 445 10,400 -1,980 Descending Indianapolis Center
08:43AM 37.5542 -84.4294 356° North 401 461 9,800 -300 Descending Indianapolis Center
08:45AM 37.6633 -84.4808 340° North 360 414 9,900 -480 Climbing Indianapolis Center
08:46AM 37.7242 -84.5614 314° West 322 371 8,900 -1,380 Descending Indianapolis Center
08:47AM 37.7814 -84.6411 312° West 309 356 7,100 -1,380 Descending Indianapolis Center
08:48AM 37.8278 -84.7164 308° West 279 321 6,100 -1,080 Descending Indianapolis Center
08:50AM 37.9164 -84.7411 348° North 212 244 3,800 -1,020 Descending Indianapolis Center
08:51AM 37.9506 -84.7017 42° Northeast 183 211 3,100 -720 Descending Indianapolis Center
08:53AM 38.0333 -84.6000 310° West  Level FlightAware Approximate
09:00AM 38.0368 -84.6086 310° West  Level Estimated